Time;durP1;ratioP1;P1;durP2;ratioP2;P2;SDS_P1;SDS_P2;PMS_P1;PMS_P2;Temp;Humidity;BMP_temperature;BMP_pressure;BME280_temperature;BME280_humidity;BME280_pressure;Samples;Min_cycle;Max_cycle;Signal;HPM_P1;HPM_P2
2023/06/25 00:01:51;;;;;;;6.68;6.05;;;14.50;99.90;;;;;;5000787;28;20034;-58
2023/06/25 00:04:17;;;;;;;7.35;6.28;;;14.50;99.90;;;;;;5002752;28;20125;-58
2023/06/25 00:06:42;;;;;;;7.55;5.50;;;14.40;99.90;;;;;;4998711;28;20085;-58
2023/06/25 00:09:08;;;;;;;11.38;6.65;;;14.40;99.90;;;;;;4997947;28;20107;-57
2023/06/25 00:11:34;;;;;;;6.47;5.93;;;14.50;99.90;;;;;;4999212;28;20026;-59
2023/06/25 00:14:01;;;;;;;7.20;6.50;;;14.40;99.90;;;;;;5002218;28;20076;-59
2023/06/25 00:16:29;;;;;;;6.22;5.63;;;14.40;99.90;;;;;;5002610;28;20022;-57
2023/06/25 00:18:55;;;;;;;6.70;6.10;;;14.40;99.90;;;;;;4998455;28;20029;-58
2023/06/25 00:21:20;;;;;;;7.75;6.80;;;14.40;99.90;;;;;;5003211;28;20034;-59
2023/06/25 00:23:46;;;;;;;6.65;6.13;;;14.40;99.90;;;;;;5000329;28;20402;-58
2023/06/25 00:26:12;;;;;;;6.32;5.82;;;14.40;99.90;;;;;;4997148;28;20030;-57
2023/06/25 00:28:37;;;;;;;6.65;6.10;;;14.40;99.90;;;;;;4999303;28;20026;-58
2023/06/25 00:31:04;;;;;;;6.85;6.25;;;14.40;99.90;;;;;;5001886;28;20064;-57
2023/06/25 00:33:32;;;;;;;7.75;6.70;;;14.30;99.90;;;;;;5000707;28;20034;-58
2023/06/25 00:35:57;;;;;;;6.30;5.80;;;14.20;99.90;;;;;;5001230;28;20039;-58
2023/06/25 00:38:24;;;;;;;7.30;6.60;;;14.10;99.90;;;;;;4998083;28;20037;-59
2023/06/25 00:40:50;;;;;;;7.82;5.88;;;14.10;99.90;;;;;;5000574;28;20379;-57
2023/06/25 00:43:16;;;;;;;9.95;6.65;;;14.00;99.90;;;;;;5001553;28;20424;-59
2023/06/25 00:45:44;;;;;;;8.35;6.40;;;14.00;99.90;;;;;;4995976;28;20034;-58
2023/06/25 00:48:10;;;;;;;7.95;7.18;;;14.00;99.90;;;;;;4997781;28;20129;-57
2023/06/25 00:50:36;;;;;;;8.23;6.55;;;14.00;99.90;;;;;;5000085;28;20451;-57
2023/06/25 00:53:02;;;;;;;7.50;6.38;;;14.00;99.90;;;;;;4997931;28;20027;-58
2023/06/25 00:55:28;;;;;;;8.40;7.70;;;14.00;99.90;;;;;;5001870;28;20472;-58
2023/06/25 00:57:55;;;;;;;7.60;6.90;;;13.90;99.90;;;;;;5002459;28;20030;-58
2023/06/25 01:00:25;;;;;;;8.20;7.40;;;13.90;99.90;;;;;;4999712;28;20053;-58
2023/06/25 01:02:53;;;;;;;7.32;6.68;;;13.80;99.90;;;;;;5000533;28;20036;-59
2023/06/25 01:05:18;;;;;;;7.10;6.50;;;13.80;99.90;;;;;;4998603;28;20437;-59
2023/06/25 01:07:45;;;;;;;6.60;6.00;;;13.80;99.90;;;;;;4998250;28;20018;-58
2023/06/25 01:10:12;;;;;;;7.88;6.45;;;13.80;99.90;;;;;;5001633;28;20061;-57
2023/06/25 01:12:39;;;;;;;12.07;6.88;;;13.70;99.90;;;;;;4997160;28;20116;-58
2023/06/25 01:15:05;;;;;;;10.30;7.20;;;13.70;99.90;;;;;;4998362;28;20046;-59
2023/06/25 01:17:31;;;;;;;7.53;6.80;;;13.80;99.90;;;;;;4998141;28;20643;-58
2023/06/25 01:19:57;;;;;;;7.13;6.45;;;13.70;99.90;;;;;;4998662;28;20083;-57
2023/06/25 01:22:32;;;;;;;8.00;6.88;;;13.70;99.90;;;;;;4999330;28;20026;-59
2023/06/25 01:24:58;;;;;;;7.10;6.50;;;13.70;99.90;;;;;;4998743;28;20410;-58
2023/06/25 01:27:24;;;;;;;7.20;6.60;;;13.60;99.90;;;;;;4999987;28;20026;-59
2023/06/25 01:29:50;;;;;;;6.68;6.07;;;13.60;99.90;;;;;;4998377;28;20033;-59
2023/06/25 01:32:17;;;;;;;7.45;6.57;;;13.60;99.90;;;;;;4999939;28;20142;-58
2023/06/25 01:34:43;;;;;;;8.85;6.32;;;13.50;99.90;;;;;;4997827;28;20038;-59
2023/06/25 01:37:09;;;;;;;8.77;6.95;;;13.50;99.90;;;;;;4995298;28;20026;-59
2023/06/25 01:39:35;;;;;;;7.68;6.03;;;13.40;99.90;;;;;;4999802;28;20565;-59
2023/06/25 01:42:01;;;;;;;7.07;6.47;;;13.40;99.90;;;;;;5002429;28;20399;-57
2023/06/25 01:44:28;;;;;;;10.20;6.57;;;13.30;99.90;;;;;;5001727;28;20026;-57
2023/06/25 01:46:55;;;;;;;8.60;6.68;;;13.30;99.90;;;;;;4998053;28;20360;-58
2023/06/25 01:49:21;;;;;;;6.80;6.20;;;13.20;99.90;;;;;;4999513;28;20038;-59
2023/06/25 01:51:47;;;;;;;8.00;5.65;;;13.20;99.90;;;;;;5002223;28;20033;-57
2023/06/25 01:54:13;;;;;;;6.63;6.03;;;13.20;99.90;;;;;;4998681;28;20057;-58
2023/06/25 01:56:38;;;;;;;14.13;6.32;;;13.10;99.90;;;;;;5000617;28;20065;-58
2023/06/25 01:59:04;;;;;;;8.35;6.10;;;13.10;99.90;;;;;;4998288;28;20030;-58
2023/06/25 02:01:31;;;;;;;7.30;6.70;;;13.10;99.90;;;;;;4999746;28;20022;-58
2023/06/25 02:03:56;;;;;;;6.95;5.88;;;13.10;99.90;;;;;;4997825;28;20125;-57
2023/06/25 02:06:22;;;;;;;7.38;6.68;;;13.00;99.90;;;;;;4996414;28;20125;-57
2023/06/25 02:08:48;;;;;;;7.85;7.18;;;13.00;99.90;;;;;;4997907;28;20121;-57
2023/06/25 02:11:13;;;;;;;7.80;7.05;;;13.00;99.90;;;;;;4998617;28;20025;-57
2023/06/25 02:13:39;;;;;;;9.63;6.85;;;13.00;99.90;;;;;;5001027;28;20022;-59
2023/06/25 02:16:05;;;;;;;7.32;6.60;;;13.00;99.90;;;;;;4999939;28;20472;-58
2023/06/25 02:18:31;;;;;;;11.40;6.55;;;13.00;99.90;;;;;;4997583;28;20125;-58
2023/06/25 02:20:57;;;;;;;7.30;6.60;;;13.00;99.90;;;;;;4998391;28;20569;-61
2023/06/25 02:23:23;;;;;;;7.63;6.93;;;13.00;99.90;;;;;;4997843;28;20026;-61
2023/06/25 02:25:50;;;;;;;6.13;5.63;;;13.00;99.90;;;;;;4998105;28;20030;-62
2023/06/25 02:28:16;;;;;;;6.85;6.25;;;13.00;99.90;;;;;;4998293;28;20030;-61
2023/06/25 02:30:42;;;;;;;7.32;6.40;;;13.00;99.90;;;;;;4997931;28;20025;-60
2023/06/25 02:33:08;;;;;;;6.35;5.75;;;13.00;99.90;;;;;;4998611;28;20034;-61
2023/06/25 02:35:34;;;;;;;8.18;6.28;;;13.00;99.90;;;;;;4998631;28;20080;-60
2023/06/25 02:37:59;;;;;;;7.15;6.45;;;13.00;99.90;;;;;;4999534;28;20042;-60
2023/06/25 02:40:27;;;;;;;8.75;7.45;;;13.00;99.90;;;;;;4997395;28;20043;-60
2023/06/25 02:42:53;;;;;;;8.95;8.15;;;13.00;99.90;;;;;;4997554;28;20037;-59
2023/06/25 02:45:19;;;;;;;7.45;6.85;;;13.00;99.90;;;;;;4995091;28;20031;-59
2023/06/25 02:47:44;;;;;;;7.85;7.07;;;13.00;99.90;;;;;;4998857;28;20403;-60
2023/06/25 02:50:10;;;;;;;8.10;7.38;;;13.00;99.90;;;;;;4995793;28;20034;-58
2023/06/25 02:52:36;;;;;;;12.18;7.47;;;12.90;99.90;;;;;;4999607;28;20021;-58
2023/06/25 02:55:01;;;;;;;8.25;7.45;;;12.90;99.90;;;;;;4998299;28;20034;-59
2023/06/25 02:57:30;;;;;;;10.95;6.95;;;12.80;99.90;;;;;;4996676;28;20034;-58
2023/06/25 02:59:57;;;;;;;7.43;6.72;;;12.70;99.90;;;;;;4995744;28;20053;-57
2023/06/25 03:02:22;;;;;;;9.15;7.03;;;12.70;99.90;;;;;;5000718;28;20108;-57
2023/06/25 03:04:48;;;;;;;7.63;6.82;;;12.70;99.90;;;;;;5002904;28;20109;-58
2023/06/25 03:07:14;;;;;;;7.32;6.63;;;12.70;99.90;;;;;;5007602;28;20049;-57
2023/06/25 03:09:40;;;;;;;11.35;6.53;;;12.70;99.90;;;;;;5002705;28;20042;-58
2023/06/25 03:12:06;;;;;;;8.70;7.20;;;12.70;99.90;;;;;;5004183;28;20030;-58
2023/06/25 03:14:32;;;;;;;7.97;7.20;;;12.70;99.90;;;;;;5003486;28;20057;-59
2023/06/25 03:16:57;;;;;;;7.93;7.03;;;12.60;99.90;;;;;;5004880;28;20068;-58
2023/06/25 03:19:23;;;;;;;7.43;6.65;;;12.60;99.90;;;;;;5007224;28;20175;-57
2023/06/25 03:21:49;;;;;;;10.20;7.15;;;12.50;99.90;;;;;;5002535;28;20501;-59
2023/06/25 03:24:14;;;;;;;6.28;5.45;;;12.50;99.90;;;;;;5004917;28;20030;-58
2023/06/25 03:26:40;;;;;;;7.95;5.10;;;12.40;99.90;;;;;;5004153;28;20034;-58
2023/06/25 03:29:06;;;;;;;8.50;5.63;;;12.40;99.90;;;;;;5003146;28;20429;-58
2023/06/25 03:31:32;;;;;;;6.88;5.90;;;12.40;99.90;;;;;;5007035;28;20378;-59
2023/06/25 03:33:57;;;;;;;6.50;5.90;;;12.40;99.90;;;;;;5004124;28;20038;-60
2023/06/25 03:36:23;;;;;;;5.93;5.38;;;12.40;99.90;;;;;;5002353;28;20034;-60
2023/06/25 03:38:48;;;;;;;13.63;6.63;;;12.40;99.90;;;;;;4998375;28;20716;-60
2023/06/25 03:41:14;;;;;;;7.43;5.82;;;12.40;99.90;;;;;;5002295;28;20030;-60
2023/06/25 03:43:40;;;;;;;6.95;5.63;;;12.40;99.90;;;;;;5002110;28;20104;-61
2023/06/25 03:46:05;;;;;;;8.90;6.30;;;12.40;99.90;;;;;;5002655;28;20110;-61
2023/06/25 03:48:31;;;;;;;7.90;6.22;;;12.40;99.90;;;;;;5001879;28;20037;-61
2023/06/25 03:50:57;;;;;;;6.65;5.45;;;12.40;99.90;;;;;;5003596;28;20034;-60
2023/06/25 03:53:25;;;;;;;10.07;6.28;;;12.50;99.90;;;;;;5004163;28;20065;-60
2023/06/25 03:55:51;;;;;;;8.90;5.82;;;12.50;99.90;;;;;;5003216;28;20116;-61
2023/06/25 03:58:16;;;;;;;8.45;7.30;;;12.50;99.90;;;;;;5004665;28;20122;-60
2023/06/25 04:00:42;;;;;;;12.45;7.70;;;12.50;99.90;;;;;;5004103;28;20134;-60
2023/06/25 04:03:07;;;;;;;7.85;6.75;;;12.50;99.90;;;;;;5002807;28;20042;-62
2023/06/25 04:05:33;;;;;;;11.77;7.28;;;12.50;99.90;;;;;;5002289;28;20125;-59
2023/06/25 04:07:59;;;;;;;8.52;7.35;;;12.50;99.90;;;;;;5003479;28;20057;-59
2023/06/25 04:10:25;;;;;;;12.90;6.90;;;12.50;99.90;;;;;;5007188;28;20040;-60
2023/06/25 04:12:51;;;;;;;8.88;7.18;;;12.50;99.90;;;;;;5003840;28;20035;-61
2023/06/25 04:15:19;;;;;;;12.95;7.35;;;12.50;99.90;;;;;;5001068;28;20494;-61
2023/06/25 04:17:46;;;;;;;8.55;6.30;;;12.60;99.90;;;;;;4996926;28;20557;-62
2023/06/25 04:20:12;;;;;;;7.45;6.45;;;12.60;99.90;;;;;;4997728;28;20026;-60
2023/06/25 04:22:38;;;;;;;6.97;6.28;;;12.60;99.90;;;;;;4997531;28;20022;-60
2023/06/25 04:25:05;;;;;;;11.32;6.65;;;12.60;99.90;;;;;;5001272;28;20513;-59
2023/06/25 04:27:30;;;;;;;7.28;6.45;;;12.70;99.90;;;;;;5001024;28;20033;-61
2023/06/25 04:29:56;;;;;;;7.13;6.50;;;12.70;99.90;;;;;;4997508;28;20026;-60
2023/06/25 04:32:21;;;;;;;9.07;6.85;;;12.80;99.90;;;;;;4999246;28;20125;-60
2023/06/25 04:34:47;;;;;;;11.48;7.25;;;12.80;99.90;;;;;;4997949;28;20043;-59
2023/06/25 04:37:13;;;;;;;8.73;7.82;;;12.90;99.90;;;;;;5001007;28;20022;-61
2023/06/25 04:39:39;;;;;;;8.73;7.05;;;12.90;99.90;;;;;;4998109;28;20034;-59
2023/06/25 04:42:05;;;;;;;8.50;7.68;;;13.00;99.90;;;;;;5002796;28;20138;-61
2023/06/25 04:44:31;;;;;;;15.50;8.07;;;13.00;99.90;;;;;;4999604;28;20112;-60
2023/06/25 04:46:57;;;;;;;11.13;8.18;;;13.10;99.90;;;;;;4996106;28;20117;-60
2023/06/25 04:49:22;;;;;;;9.35;8.52;;;13.10;99.90;;;;;;5000088;28;20131;-60
2023/06/25 04:51:48;;;;;;;12.07;7.82;;;13.20;99.90;;;;;;5000385;28;20043;-60
2023/06/25 04:54:14;;;;;;;12.68;7.88;;;13.20;99.90;;;;;;4999578;28;20809;-60
2023/06/25 04:56:40;;;;;;;13.27;7.82;;;13.30;99.90;;;;;;5000871;28;20080;-60
2023/06/25 04:59:05;;;;;;;9.10;7.70;;;13.40;99.90;;;;;;5000858;28;20037;-59
2023/06/25 05:01:32;;;;;;;9.27;8.38;;;13.40;99.90;;;;;;5002985;28;20425;-59
2023/06/25 05:03:58;;;;;;;9.23;8.32;;;13.50;99.90;;;;;;4997514;28;20034;-61
2023/06/25 05:06:23;;;;;;;8.95;8.15;;;13.60;99.90;;;;;;5001541;28;20069;-59
2023/06/25 05:08:49;;;;;;;10.02;9.00;;;13.70;99.90;;;;;;5001513;28;20407;-59
2023/06/25 05:11:15;;;;;;;10.30;9.35;;;13.80;99.90;;;;;;4999042;28;20121;-59
2023/06/25 05:13:41;;;;;;;10.57;8.73;;;13.90;99.90;;;;;;5000566;28;20056;-59
2023/06/25 05:16:07;;;;;;;11.35;10.25;;;14.00;99.90;;;;;;4998891;28;20038;-60
2023/06/25 05:18:32;;;;;;;14.32;10.80;;;14.10;99.90;;;;;;4999495;28;20026;-59
2023/06/25 05:20:58;;;;;;;18.67;10.57;;;14.10;99.90;;;;;;4998886;28;20022;-59
2023/06/25 05:23:25;;;;;;;11.50;10.52;;;14.20;99.90;;;;;;5000299;28;20037;-59
2023/06/25 05:25:51;;;;;;;13.80;11.02;;;14.30;99.90;;;;;;4996575;28;20030;-60
2023/06/25 05:28:16;;;;;;;12.55;11.35;;;14.30;99.90;;;;;;4999173;28;20115;-59
2023/06/25 05:30:42;;;;;;;12.75;11.45;;;14.40;99.90;;;;;;4999251;28;20033;-59
2023/06/25 05:33:08;;;;;;;15.15;11.27;;;14.50;99.90;;;;;;4996714;28;20092;-60
2023/06/25 05:35:33;;;;;;;13.20;10.40;;;14.60;99.90;;;;;;4997262;28;20101;-59
2023/06/25 05:37:59;;;;;;;11.48;10.35;;;14.70;99.90;;;;;;4999303;28;20038;-60
2023/06/25 05:40:27;;;;;;;15.82;10.88;;;14.70;99.90;;;;;;4996917;28;20479;-61
2023/06/25 05:42:54;;;;;;;12.90;11.68;;;14.80;99.90;;;;;;5002165;28;20061;-59
2023/06/25 05:45:20;;;;;;;12.05;10.80;;;14.80;99.90;;;;;;4997089;28;20041;-60
2023/06/25 05:47:46;;;;;;;12.00;10.57;;;14.90;99.90;;;;;;4999286;28;20036;-60
2023/06/25 05:50:11;;;;;;;11.45;10.35;;;15.00;99.90;;;;;;4998430;28;20422;-60
2023/06/25 05:52:37;;;;;;;13.05;11.73;;;15.10;99.90;;;;;;5000000;28;20395;-59
2023/06/25 05:55:03;;;;;;;12.50;11.30;;;15.20;99.90;;;;;;4996367;28;20039;-60
2023/06/25 05:57:29;;;;;;;11.90;10.70;;;15.20;99.90;;;;;;4994633;28;20077;-60
2023/06/25 05:59:54;;;;;;;11.05;9.93;;;15.30;99.90;;;;;;4993623;28;20522;-60
2023/06/25 06:02:20;;;;;;;11.13;10.15;;;15.40;99.90;;;;;;5001596;28;20109;-59
2023/06/25 06:04:46;;;;;;;10.90;9.57;;;15.50;99.90;;;;;;5002322;28;20022;-60
2023/06/25 06:07:11;;;;;;;10.30;9.40;;;15.50;99.90;;;;;;4998793;28;20034;-60
2023/06/25 06:09:37;;;;;;;11.32;10.13;;;15.60;99.90;;;;;;4997554;28;20057;-59
2023/06/25 06:12:03;;;;;;;11.15;10.05;;;15.70;99.90;;;;;;4998166;28;20030;-60
2023/06/25 06:14:28;;;;;;;10.93;9.80;;;15.80;99.90;;;;;;5000523;28;20471;-59
2023/06/25 06:16:54;;;;;;;13.90;9.68;;;15.80;99.90;;;;;;4999076;28;20036;-60
2023/06/25 06:19:20;;;;;;;10.55;9.55;;;16.00;99.90;;;;;;4997132;28;20472;-60
2023/06/25 06:21:45;;;;;;;13.80;9.75;;;16.10;99.90;;;;;;4996727;28;20027;-60
2023/06/25 06:24:11;;;;;;;9.55;8.75;;;16.20;99.90;;;;;;4995571;28;20037;-60
2023/06/25 06:26:37;;;;;;;9.32;8.45;;;16.30;99.90;;;;;;4998570;28;20026;-59
2023/06/25 06:29:03;;;;;;;9.35;8.45;;;16.40;99.90;;;;;;4997081;28;20034;-60
2023/06/25 06:31:31;;;;;;;10.65;8.38;;;16.50;99.90;;;;;;4996592;28;20101;-61
2023/06/25 06:33:57;;;;;;;8.77;7.97;;;16.60;99.90;;;;;;4997751;28;20752;-59
2023/06/25 06:36:23;;;;;;;9.68;8.27;;;16.70;99.90;;;;;;4996974;28;20030;-59
2023/06/25 06:38:48;;;;;;;9.07;8.20;;;16.90;99.90;;;;;;4998585;28;20023;-60
2023/06/25 06:41:14;;;;;;;9.07;7.70;;;17.00;99.90;;;;;;4997816;28;20018;-58
2023/06/25 06:43:39;;;;;;;8.38;7.68;;;17.10;99.90;;;;;;4999456;28;20030;-60
2023/06/25 06:46:05;;;;;;;8.60;7.88;;;17.20;99.90;;;;;;4995778;28;20030;-59
2023/06/25 06:48:31;;;;;;;9.13;7.97;;;17.30;99.90;;;;;;4997860;28;20026;-60
2023/06/25 06:50:56;;;;;;;7.93;7.03;;;17.40;99.90;;;;;;4996224;28;20050;-60
2023/06/25 06:53:22;;;;;;;7.65;6.85;;;17.50;99.90;;;;;;4998061;28;20033;-60
2023/06/25 06:55:47;;;;;;;7.63;7.03;;;17.70;99.90;;;;;;4997212;28;20034;-59
2023/06/25 06:58:13;;;;;;;7.45;6.88;;;17.90;99.90;;;;;;4998289;28;20048;-59
2023/06/25 07:00:39;;;;;;;7.05;6.45;;;18.00;99.90;;;;;;5000047;28;20026;-60
2023/06/25 07:03:05;;;;;;;8.55;7.85;;;18.10;99.90;;;;;;5000139;28;20054;-60
2023/06/25 07:05:30;;;;;;;11.52;6.93;;;18.10;99.90;;;;;;4996677;28;20089;-60
2023/06/25 07:07:56;;;;;;;7.03;6.32;;;18.20;99.90;;;;;;4997191;28;20116;-61
2023/06/25 07:10:22;;;;;;;7.85;7.07;;;18.30;99.90;;;;;;4993401;28;20036;-60
2023/06/25 07:12:47;;;;;;;8.85;8.15;;;18.40;99.90;;;;;;5000522;28;20030;-59
2023/06/25 07:15:13;;;;;;;8.55;7.85;;;18.50;99.90;;;;;;4997752;28;20069;-60
2023/06/25 07:17:39;;;;;;;8.68;7.15;;;18.60;99.90;;;;;;4996812;28;20026;-60
2023/06/25 07:20:06;;;;;;;8.77;6.93;;;18.70;99.90;;;;;;4997331;28;20034;-58
2023/06/25 07:22:36;;;;;;;6.97;6.35;;;18.90;99.90;;;;;;4997311;28;20042;-61
2023/06/25 07:25:01;;;;;;;6.78;6.25;;;18.90;99.90;;;;;;4998564;28;20069;-61
2023/06/25 07:27:27;;;;;;;6.78;6.07;;;19.00;99.90;;;;;;4997166;28;20046;-60
2023/06/25 07:29:52;;;;;;;5.60;5.10;;;19.10;99.90;;;;;;4994902;28;20030;-61
2023/06/25 07:32:18;;;;;;;6.55;5.28;;;19.10;99.90;;;;;;4996550;28;20030;-60
2023/06/25 07:34:44;;;;;;;6.85;6.13;;;19.20;99.90;;;;;;4995859;28;20025;-60
2023/06/25 07:37:09;;;;;;;9.48;5.38;;;19.30;99.90;;;;;;4998467;28;20038;-60
2023/06/25 07:39:35;;;;;;;6.88;5.57;;;19.40;99.90;;;;;;4999356;28;20624;-60
2023/06/25 07:42:01;;;;;;;6.18;5.68;;;19.50;99.90;;;;;;4995302;28;20030;-61
2023/06/25 07:44:27;;;;;;;6.18;5.68;;;19.70;99.90;;;;;;4997283;28;20085;-61
2023/06/25 07:46:52;;;;;;;5.75;5.18;;;19.80;99.90;;;;;;4996775;28;20034;-62
2023/06/25 07:49:18;;;;;;;6.35;5.75;;;19.90;99.90;;;;;;5001754;28;20034;-60
2023/06/25 07:51:45;;;;;;;5.43;4.95;;;20.00;99.90;;;;;;5003483;28;20041;-61
2023/06/25 07:54:12;;;;;;;5.68;5.10;;;20.20;99.90;;;;;;5001303;28;20069;-61
2023/06/25 07:56:37;;;;;;;7.20;6.05;;;20.30;99.90;;;;;;4999139;28;20022;-60
2023/06/25 07:59:03;;;;;;;5.70;4.80;;;20.50;99.90;;;;;;4998894;28;20030;-59
2023/06/25 08:01:29;;;;;;;5.80;5.30;;;20.60;99.90;;;;;;5001361;28;20026;-60
2023/06/25 08:03:56;;;;;;;5.38;4.88;;;20.80;99.90;;;;;;5000377;28;20029;-60
2023/06/25 08:06:21;;;;;;;5.72;5.32;;;21.00;99.90;;;;;;5000001;28;20034;-60
2023/06/25 08:08:47;;;;;;;5.10;4.70;;;21.20;99.90;;;;;;4999237;28;20115;-60
2023/06/25 08:11:13;;;;;;;4.43;4.03;;;21.20;99.90;;;;;;5001390;28;20702;-58
2023/06/25 08:13:39;;;;;;;5.82;5.32;;;21.30;99.90;;;;;;5001935;28;20050;-60
2023/06/25 08:16:04;;;;;;;4.95;4.55;;;21.40;99.90;;;;;;4998730;28;20061;-60
2023/06/25 08:18:30;;;;;;;6.15;4.97;;;21.60;99.90;;;;;;5005128;28;20041;-59
2023/06/25 08:20:56;;;;;;;5.35;4.95;;;21.70;99.90;;;;;;5000170;28;20121;-61
2023/06/25 08:23:21;;;;;;;4.72;4.20;;;21.90;99.90;;;;;;4999936;28;20030;-61
2023/06/25 08:25:47;;;;;;;4.38;3.97;;;22.00;99.90;;;;;;4999719;28;20041;-59
2023/06/25 08:28:13;;;;;;;5.43;4.32;;;22.00;99.90;;;;;;5000018;28;20034;-60
2023/06/25 08:30:39;;;;;;;6.78;4.28;;;22.00;99.90;;;;;;5001203;28;20041;-58
2023/06/25 08:33:04;;;;;;;5.03;4.47;;;22.10;99.90;;;;;;4997687;28;20034;-59
2023/06/25 08:35:30;;;;;;;4.97;4.25;;;22.20;99.90;;;;;;4999601;28;20410;-57
2023/06/25 08:37:56;;;;;;;8.80;3.92;;;22.30;99.90;;;;;;4998379;28;20036;-58
2023/06/25 08:40:22;;;;;;;4.32;3.92;;;22.20;99.90;;;;;;4997707;28;20113;-58
2023/06/25 08:42:49;;;;;;;4.57;3.90;;;22.30;99.90;;;;;;5001730;28;20042;-58
2023/06/25 08:45:14;;;;;;;5.95;3.83;;;22.50;99.90;;;;;;4998239;28;20038;-57
2023/06/25 08:47:40;;;;;;;10.13;3.75;;;22.50;99.90;;;;;;4999528;28;20529;-58
2023/06/25 08:50:11;;;;;;;3.95;3.65;;;22.60;99.90;;;;;;4999485;28;20653;-58
2023/06/25 08:52:40;;;;;;;4.35;4.05;;;22.60;99.90;;;;;;5001102;28;20030;-57
2023/06/25 08:55:11;;;;;;;4.53;4.10;;;22.70;99.90;;;;;;4998232;28;20418;-58
2023/06/25 08:57:36;;;;;;;4.43;4.03;;;22.80;99.90;;;;;;5000345;28;20026;-58
2023/06/25 09:00:07;;;;;;;4.13;3.72;;;22.90;99.90;;;;;;4998967;28;20422;-59
2023/06/25 09:02:33;;;;;;;4.07;3.78;;;23.20;99.90;;;;;;4998935;28;20030;-58
2023/06/25 09:05:06;;;;;;;4.50;3.70;;;23.30;99.90;;;;;;4999237;28;20181;-59
2023/06/25 09:07:43;;;;;;;5.78;3.97;;;23.40;99.90;;;;;;4997054;28;20038;-58
2023/06/25 09:10:09;;;;;;;5.30;4.03;;;23.60;99.90;;;;;;5000030;28;20084;-58
2023/06/25 09:12:34;;;;;;;4.90;4.40;;;23.70;99.90;;;;;;4997734;28;20506;-59
2023/06/25 09:15:00;;;;;;;4.40;4.00;;;23.70;99.90;;;;;;5001522;28;20326;-58
2023/06/25 09:17:26;;;;;;;5.55;4.00;;;23.70;99.90;;;;;;4997307;28;20038;-58
2023/06/25 09:19:51;;;;;;;7.03;4.40;;;23.70;99.90;;;;;;5001529;28;20036;-59
2023/06/25 09:22:17;;;;;;;4.90;4.50;;;23.70;99.90;;;;;;4997760;28;20122;-59
2023/06/25 09:24:44;;;;;;;7.07;4.15;;;23.80;99.90;;;;;;4998426;28;20026;-57
2023/06/25 09:27:10;;;;;;;4.18;3.85;;;23.90;99.90;;;;;;5001114;28;20092;-57
2023/06/25 09:29:37;;;;;;;4.47;4.13;;;24.00;99.90;;;;;;4998067;28;20030;-58
2023/06/25 09:32:08;;;;;;;4.43;4.03;;;24.20;99.90;;;;;;4999301;28;20030;-58
2023/06/25 09:34:33;;;;;;;5.05;3.92;;;24.30;99.90;;;;;;4999234;28;20057;-58
2023/06/25 09:37:02;;;;;;;4.32;3.95;;;24.40;99.90;;;;;;4997100;28;20056;-59
2023/06/25 09:39:29;;;;;;;8.23;4.05;;;24.50;99.90;;;;;;5000141;28;20038;-59
2023/06/25 09:41:55;;;;;;;3.92;3.53;;;24.60;99.90;;;;;;4997254;28;20073;-57
2023/06/25 09:44:21;;;;;;;6.68;3.45;;;24.80;95.70;;;;;;4994798;28;20093;-59
2023/06/25 09:46:49;;;;;;;4.50;4.10;;;24.90;99.20;;;;;;5001162;28;20025;-57
2023/06/25 09:49:18;;;;;;;3.88;3.55;;;24.90;99.90;;;;;;4999514;28;20036;-58
2023/06/25 09:51:55;;;;;;;7.05;3.47;;;25.00;97.30;;;;;;4996711;28;20495;-59
2023/06/25 09:54:22;;;;;;;4.05;3.50;;;25.10;90.30;;;;;;5000778;28;20037;-59
2023/06/25 09:56:50;;;;;;;6.38;3.95;;;25.30;96.40;;;;;;4999563;28;20182;-58
2023/06/25 09:59:16;;;;;;;3.55;3.25;;;25.50;95.00;;;;;;4996822;28;20076;-58
2023/06/25 10:01:42;;;;;;;4.18;3.40;;;25.70;95.90;;;;;;4999581;28;20471;-58
2023/06/25 10:04:08;;;;;;;3.75;3.38;;;25.80;92.10;;;;;;5001402;28;20041;-58
2023/06/25 10:06:35;;;;;;;4.78;3.50;;;25.80;87.80;;;;;;4998103;28;20038;-58
2023/06/25 10:09:04;;;;;;;3.55;3.25;;;25.90;89.70;;;;;;4999847;28;20770;-58
2023/06/25 10:11:30;;;;;;;3.50;3.22;;;26.10;74.50;;;;;;4998006;28;20034;-59
2023/06/25 10:13:57;;;;;;;3.13;2.80;;;26.50;78.90;;;;;;4997544;28;20121;-59
2023/06/25 10:16:22;;;;;;;3.72;3.42;;;26.60;81.00;;;;;;4998136;28;20034;-58
2023/06/25 10:18:54;;;;;;;6.20;3.60;;;26.50;70.20;;;;;;4997852;28;20029;-59
2023/06/25 10:21:22;;;;;;;3.22;2.95;;;26.40;80.70;;;;;;4996401;28;20038;-59
2023/06/25 10:24:02;;;;;;;4.30;3.60;;;26.30;70.80;;;;;;4997268;28;20073;-58
2023/06/25 10:26:30;;;;;;;6.03;3.65;;;26.30;81.00;;;;;;4995699;28;20022;-59
2023/06/25 10:28:58;;;;;;;3.38;3.08;;;26.30;81.30;;;;;;4999853;28;20258;-58
2023/06/25 10:31:25;;;;;;;3.55;2.92;;;26.20;76.90;;;;;;4996869;28;20258;-58
2023/06/25 10:34:01;;;;;;;5.47;2.75;;;26.20;76.20;;;;;;4997489;28;20831;-59
2023/06/25 10:36:26;;;;;;;5.75;3.38;;;26.20;72.60;;;;;;4997839;28;20089;-58
2023/06/25 10:38:52;;;;;;;3.00;2.70;;;26.30;77.90;;;;;;4998879;28;20026;-58
2023/06/25 10:41:25;;;;;;;3.30;3.00;;;26.30;71.50;;;;;;4997674;28;20394;-59
2023/06/25 10:43:51;;;;;;;3.60;3.30;;;26.30;66.30;;;;;;4995773;28;20522;-58
2023/06/25 10:46:17;;;;;;;5.57;3.28;;;26.30;72.20;;;;;;4995024;28;20034;-59
2023/06/25 10:48:46;;;;;;;7.65;3.35;;;26.30;70.70;;;;;;4998665;28;20137;-58
2023/06/25 10:51:11;;;;;;;3.45;3.05;;;26.30;71.60;;;;;;4997467;28;20056;-58
2023/06/25 10:53:37;;;;;;;3.65;3.35;;;26.40;69.30;;;;;;4998954;28;20408;-60
2023/06/25 10:56:03;;;;;;;2.90;2.70;;;26.60;71.80;;;;;;4996327;28;20077;-58
2023/06/25 10:58:29;;;;;;;3.65;2.83;;;26.70;73.60;;;;;;4996614;28;20076;-59
2023/06/25 11:00:56;;;;;;;5.43;3.45;;;26.80;68.20;;;;;;4996738;28;20443;-58
2023/06/25 11:03:22;;;;;;;3.25;2.97;;;26.80;71.90;;;;;;4998418;28;20145;-59
2023/06/25 11:05:48;;;;;;;3.28;2.97;;;26.90;69.00;;;;;;4996226;28;20085;-57
2023/06/25 11:08:14;;;;;;;3.13;2.90;;;26.90;71.80;;;;;;4997006;28;20026;-58
2023/06/25 11:10:41;;;;;;;3.22;3.03;;;27.00;67.40;;;;;;4994747;28;20017;-59
2023/06/25 11:13:11;;;;;;;3.58;3.00;;;27.00;64.00;;;;;;4997794;28;20069;-58
2023/06/25 11:15:37;;;;;;;3.08;2.67;;;26.90;61.30;;;;;;4999276;28;20046;-59
2023/06/25 11:18:03;;;;;;;3.33;3.00;;;26.90;70.60;;;;;;4993450;28;20113;-58
2023/06/25 11:20:29;;;;;;;3.60;3.28;;;26.90;70.60;;;;;;4997940;28;20057;-58
2023/06/25 11:22:56;;;;;;;3.53;3.22;;;27.00;66.50;;;;;;5000631;28;20034;-58
2023/06/25 11:25:21;;;;;;;2.90;2.42;;;27.10;60.70;;;;;;5001052;28;20054;-59
2023/06/25 11:27:48;;;;;;;2.58;2.35;;;27.10;64.00;;;;;;5002575;28;20494;-58
2023/06/25 11:30:14;;;;;;;3.15;2.88;;;27.10;60.60;;;;;;5000832;28;20030;-58
2023/06/25 11:32:40;;;;;;;4.35;2.28;;;27.20;59.10;;;;;;4998535;28;20044;-58
2023/06/25 11:35:13;;;;;;;3.35;3.05;;;27.20;62.30;;;;;;5003022;28;20109;-59
2023/06/25 11:37:44;;;;;;;2.60;2.40;;;27.30;61.00;;;;;;5001627;28;20041;-59
2023/06/25 11:40:23;;;;;;;2.65;2.45;;;27.30;58.60;;;;;;4998788;28;20080;-58
2023/06/25 11:42:49;;;;;;;4.97;2.50;;;27.40;59.60;;;;;;5003057;28;20029;-59
2023/06/25 11:45:15;;;;;;;4.05;2.60;;;27.50;56.90;;;;;;4999133;28;20030;-57
2023/06/25 11:47:46;;;;;;;3.97;2.65;;;27.60;58.30;;;;;;4999499;28;20073;-60
2023/06/25 11:50:12;;;;;;;2.70;2.50;;;27.70;58.00;;;;;;4998008;28;20487;-59
2023/06/25 11:52:38;;;;;;;2.35;2.15;;;27.80;57.70;;;;;;5000856;28;20033;-59
2023/06/25 11:55:06;;;;;;;2.42;2.20;;;27.90;55.70;;;;;;5001454;28;20030;-58
2023/06/25 11:57:31;;;;;;;3.10;2.90;;;28.00;57.00;;;;;;4996595;28;20030;-59
2023/06/25 11:59:57;;;;;;;4.13;2.83;;;27.90;57.40;;;;;;5002785;28;20033;-58
2023/06/25 12:02:22;;;;;;;8.73;2.80;;;27.80;55.80;;;;;;5002945;28;20530;-58
2023/06/25 12:04:48;;;;;;;2.85;2.55;;;27.80;58.30;;;;;;4999289;28;20027;-57
2023/06/25 12:07:14;;;;;;;3.20;2.90;;;27.90;58.70;;;;;;5001529;28;20414;-58
2023/06/25 12:09:40;;;;;;;3.13;2.90;;;27.90;56.80;;;;;;5002196;28;20038;-59
2023/06/25 12:12:06;;;;;;;4.20;2.97;;;28.00;55.20;;;;;;5001836;28;20572;-59
2023/06/25 12:14:32;;;;;;;2.97;2.25;;;27.90;57.20;;;;;;5001355;28;20030;-59
2023/06/25 12:16:57;;;;;;;2.90;2.55;;;27.90;55.90;;;;;;4998667;28;20037;-57
2023/06/25 12:19:23;;;;;;;3.55;2.58;;;27.90;61.40;;;;;;5002698;28;20133;-58
2023/06/25 12:21:49;;;;;;;2.72;2.45;;;28.00;57.90;;;;;;4997690;28;20046;-57
2023/06/25 12:24:14;;;;;;;2.85;2.65;;;28.20;57.60;;;;;;5000064;28;20022;-57
2023/06/25 12:26:40;;;;;;;3.60;3.30;;;28.30;56.50;;;;;;5000449;28;20037;-59
2023/06/25 12:29:06;;;;;;;3.00;2.80;;;28.40;56.90;;;;;;5001749;28;20030;-59
2023/06/25 12:31:31;;;;;;;3.00;2.80;;;28.50;56.20;;;;;;5000369;28;20021;-58
2023/06/25 12:33:57;;;;;;;2.50;2.30;;;28.50;53.40;;;;;;4997257;28;20770;-58
2023/06/25 12:36:23;;;;;;;3.45;2.42;;;28.40;53.40;;;;;;5001138;28;20490;-58
2023/06/25 12:38:48;;;;;;;3.03;2.80;;;28.50;55.70;;;;;;5001098;28;20113;-58
2023/06/25 12:41:14;;;;;;;3.67;2.83;;;28.60;55.70;;;;;;4999463;28;20026;-60